Time;durP1;ratioP1;P1;durP2;ratioP2;P2;SDS_P1;SDS_P2;PMS_P1;PMS_P2;Temp;Humidity;BMP_temperature;BMP_pressure;BME280_temperature;BME280_humidity;BME280_pressure;Samples;Min_cycle;Max_cycle;Signal;HPM_P1;HPM_P2
2021/01/23 00:01:02;;;;;;;29.83;19.13;;;2.70;95.10;;;;;;5064955;28;20052;-68
2021/01/23 00:03:28;;;;;;;30.70;19.42;;;2.50;95.40;;;;;;5067833;28;20045;-69
2021/01/23 00:05:53;;;;;;;32.35;19.73;;;2.50;95.40;;;;;;5066871;28;20057;-69
2021/01/23 00:08:19;;;;;;;32.67;21.08;;;2.60;95.20;;;;;;5067056;28;20096;-69
2021/01/23 00:10:45;;;;;;;29.40;18.75;;;2.50;95.10;;;;;;5066988;28;20041;-69
2021/01/23 00:13:11;;;;;;;28.45;20.15;;;2.50;95.30;;;;;;5067529;28;20114;-69
2021/01/23 00:15:36;;;;;;;33.83;20.27;;;2.40;95.50;;;;;;5076061;28;20045;-68
2021/01/23 00:18:02;;;;;;;30.42;19.00;;;2.30;95.70;;;;;;5078041;28;20155;-69
2021/01/23 00:20:28;;;;;;;29.92;19.88;;;2.30;95.80;;;;;;5068421;28;20049;-69
2021/01/23 00:22:54;;;;;;;31.95;19.85;;;2.40;95.70;;;;;;5066816;28;20103;-69
2021/01/23 00:25:20;;;;;;;27.92;19.65;;;2.40;95.60;;;;;;5066645;28;20104;-69
2021/01/23 00:27:46;;;;;;;31.50;19.92;;;2.30;95.70;;;;;;5066519;28;20041;-69
2021/01/23 00:30:12;;;;;;;33.35;20.90;;;2.30;95.70;;;;;;5066693;28;20043;-68
2021/01/23 00:32:38;;;;;;;27.45;19.60;;;2.30;95.50;;;;;;5066670;28;20052;-68
2021/01/23 00:35:04;;;;;;;32.20;20.15;;;2.30;96.20;;;;;;5066264;28;20049;-69
2021/01/23 00:37:31;;;;;;;29.38;20.15;;;2.20;95.80;;;;;;5066317;28;20132;-68
2021/01/23 00:39:56;;;;;;;27.38;19.90;;;2.30;95.80;;;;;;5066327;28;20044;-68
2021/01/23 00:42:23;;;;;;;30.65;20.05;;;2.40;95.80;;;;;;5066582;28;20049;-68
2021/01/23 00:44:49;;;;;;;29.52;19.65;;;2.40;95.30;;;;;;5048351;28;20527;-68
2021/01/23 00:47:14;;;;;;;29.30;19.67;;;2.50;95.30;;;;;;5066497;28;20049;-69
2021/01/23 00:49:40;;;;;;;25.15;19.52;;;2.70;94.70;;;;;;5066047;28;20071;-68
2021/01/23 00:52:06;;;;;;;28.05;19.58;;;2.60;94.80;;;;;;5066153;28;20048;-69
2021/01/23 00:54:32;;;;;;;27.75;19.83;;;2.60;94.80;;;;;;5067042;28;20045;-68
2021/01/23 00:56:58;;;;;;;28.45;19.55;;;2.50;94.90;;;;;;5066070;28;20087;-68
2021/01/23 00:59:24;;;;;;;27.70;17.92;;;2.40;95.10;;;;;;5060257;28;20120;-68
2021/01/23 01:01:49;;;;;;;28.30;19.52;;;2.40;95.30;;;;;;5066205;28;20496;-68
2021/01/23 01:04:15;;;;;;;27.23;19.42;;;2.40;95.30;;;;;;5065862;28;20060;-69
2021/01/23 01:06:41;;;;;;;27.50;18.90;;;2.30;95.40;;;;;;5065787;28;20139;-69
2021/01/23 01:09:07;;;;;;;25.42;18.77;;;2.30;95.30;;;;;;5065684;28;20417;-69
2021/01/23 01:11:33;;;;;;;23.83;19.10;;;2.40;95.50;;;;;;5066330;28;20059;-68
2021/01/23 01:13:58;;;;;;;28.95;19.48;;;2.50;95.20;;;;;;5066191;28;20044;-69
2021/01/23 01:16:25;;;;;;;26.02;19.00;;;2.60;94.90;;;;;;5075449;28;20053;-68
2021/01/23 01:18:51;;;;;;;26.33;17.10;;;2.80;94.10;;;;;;5078897;28;20045;-69
2021/01/23 01:21:16;;;;;;;27.13;17.77;;;3.00;93.70;;;;;;5066550;28;20087;-68
2021/01/23 01:23:42;;;;;;;28.40;18.83;;;3.10;93.30;;;;;;5065680;28;20041;-68
2021/01/23 01:26:09;;;;;;;27.35;18.77;;;3.10;93.20;;;;;;5065572;28;20139;-69
2021/01/23 01:28:35;;;;;;;26.85;20.08;;;3.10;93.40;;;;;;5065687;28;20536;-68
2021/01/23 01:31:01;;;;;;;28.65;20.05;;;3.10;93.30;;;;;;5065811;28;20057;-69
2021/01/23 01:33:27;;;;;;;30.08;19.17;;;3.20;93.10;;;;;;5065280;28;20055;-68
2021/01/23 01:35:53;;;;;;;28.85;19.90;;;3.10;93.20;;;;;;5065495;28;20100;-68
2021/01/23 01:38:18;;;;;;;29.52;19.13;;;3.10;93.30;;;;;;5065060;28;20048;-69
2021/01/23 01:40:44;;;;;;;27.60;19.40;;;3.00;93.40;;;;;;5065321;28;20044;-69
2021/01/23 01:43:10;;;;;;;27.48;19.42;;;3.30;93.10;;;;;;5065173;28;20041;-69
2021/01/23 01:45:36;;;;;;;30.48;19.45;;;3.20;93.00;;;;;;5065141;28;20179;-68
2021/01/23 01:48:02;;;;;;;30.52;20.98;;;3.30;93.10;;;;;;5065401;28;20041;-68
2021/01/23 01:50:28;;;;;;;29.48;20.73;;;3.10;93.60;;;;;;5065819;28;20045;-69
2021/01/23 01:52:54;;;;;;;28.30;18.50;;;3.10;93.40;;;;;;5065896;28;20153;-69
2021/01/23 01:55:31;;;;;;;31.88;22.13;;;3.10;93.40;;;;;;5064937;28;20052;-68
2021/01/23 01:57:57;;;;;;;35.45;21.92;;;2.90;93.50;;;;;;5064783;28;20044;-69
2021/01/23 02:00:24;;;;;;;32.03;22.27;;;2.90;94.20;;;;;;5060042;28;20056;-69
2021/01/23 02:03:22;;;;;;;34.45;22.70;;;2.70;94.20;;;;;;5065956;28;20041;-69
2021/01/23 02:06:15;;;;;;;33.20;22.00;;;2.70;94.50;;;;;;5065387;28;20044;-68
2021/01/23 02:08:54;;;;;;;34.42;21.65;;;2.70;94.30;;;;;;5064546;28;20048;-69
2021/01/23 02:11:27;;;;;;;32.22;22.33;;;2.60;94.50;;;;;;5065542;28;20061;-69
2021/01/23 02:14:00;;;;;;;32.58;23.23;;;2.50;94.60;;;;;;5064815;28;20116;-69
2021/01/23 02:16:33;;;;;;;31.83;22.77;;;2.50;94.90;;;;;;5057068;28;20052;-69
2021/01/23 02:19:20;;;;;;;31.05;22.27;;;2.60;94.70;;;;;;5078905;28;20100;-69
2021/01/23 02:22:15;;;;;;;34.17;24.02;;;2.60;94.60;;;;;;5065485;28;20049;-69
2021/01/23 02:24:43;;;;;;;32.60;20.92;;;2.50;94.60;;;;;;5037163;28;20041;-69
2021/01/23 02:27:33;;;;;;;30.10;19.70;;;2.60;94.50;;;;;;5064524;28;20052;-69
2021/01/23 02:30:14;;;;;;;27.70;21.17;;;2.90;93.60;;;;;;5064044;28;20041;-69
2021/01/23 02:32:42;;;;;;;28.30;18.55;;;3.00;93.30;;;;;;5065408;28;20059;-68
2021/01/23 02:35:11;;;;;;;32.47;24.20;;;3.10;93.10;;;;;;5064529;28;20048;-68
2021/01/23 02:37:41;;;;;;;31.92;22.33;;;3.00;92.70;;;;;;5058686;28;20041;-69
2021/01/23 02:40:08;;;;;;;38.07;22.97;;;2.90;93.20;;;;;;5065007;28;20569;-68
2021/01/23 02:42:34;;;;;;;31.75;21.92;;;2.80;93.60;;;;;;5065328;28;20045;-69
2021/01/23 02:45:00;;;;;;;33.72;22.17;;;2.70;93.90;;;;;;5064170;28;20049;-68
2021/01/23 02:47:26;;;;;;;29.05;20.05;;;2.70;93.90;;;;;;5064596;28;20072;-69
2021/01/23 02:49:52;;;;;;;30.45;22.52;;;2.80;93.90;;;;;;5064018;28;20049;-69
2021/01/23 02:52:36;;;;;;;31.10;22.92;;;2.80;93.70;;;;;;5064231;28;20516;-69
2021/01/23 02:55:07;;;;;;;31.70;21.42;;;2.80;93.60;;;;;;5052593;28;20045;-69
2021/01/23 02:57:36;;;;;;;30.20;19.65;;;2.90;93.50;;;;;;5065079;28;20049;-69
2021/01/23 03:00:08;;;;;;;29.27;20.48;;;2.80;93.50;;;;;;5058694;28;20045;-69
2021/01/23 03:02:41;;;;;;;29.40;21.88;;;2.80;93.60;;;;;;5064167;28;20049;-68
2021/01/23 03:05:08;;;;;;;31.55;20.95;;;2.80;93.60;;;;;;5064074;28;20445;-69
2021/01/23 03:07:34;;;;;;;30.35;21.02;;;2.70;93.70;;;;;;5064185;28;20048;-69
2021/01/23 03:10:10;;;;;;;26.02;20.20;;;2.80;93.50;;;;;;5065143;28;20072;-69
2021/01/23 03:12:36;;;;;;;28.48;19.20;;;2.90;93.20;;;;;;5065244;28;20079;-69
2021/01/23 03:15:03;;;;;;;30.83;20.25;;;2.80;93.30;;;;;;5073243;28;20044;-69
2021/01/23 03:17:29;;;;;;;33.67;20.17;;;2.80;93.30;;;;;;5064761;28;20052;-69
2021/01/23 03:19:55;;;;;;;28.80;19.63;;;2.90;93.30;;;;;;5064561;28;20041;-69
2021/01/23 03:22:21;;;;;;;33.85;21.73;;;2.90;93.00;;;;;;5051656;28;20041;-69
2021/01/23 03:24:46;;;;;;;26.60;19.65;;;2.70;93.30;;;;;;5064134;28;20045;-69
2021/01/23 03:27:12;;;;;;;30.13;20.85;;;2.80;93.40;;;;;;5064331;28;20045;-69
2021/01/23 03:29:38;;;;;;;28.40;19.83;;;2.60;93.60;;;;;;5064908;28;20120;-69
2021/01/23 03:32:04;;;;;;;31.85;21.13;;;2.60;93.60;;;;;;5064935;28;20044;-69
2021/01/23 03:34:30;;;;;;;27.85;18.17;;;2.70;93.60;;;;;;5065019;28;20049;-69
2021/01/23 03:36:56;;;;;;;27.73;20.40;;;2.80;93.20;;;;;;5064937;28;20486;-69
2021/01/23 03:39:21;;;;;;;31.35;21.38;;;2.70;93.40;;;;;;5065099;28;20053;-69
2021/01/23 03:41:47;;;;;;;32.55;18.90;;;2.70;93.60;;;;;;5067588;28;20037;-69
2021/01/23 03:44:13;;;;;;;27.58;18.25;;;2.70;93.60;;;;;;5068196;28;20575;-69
2021/01/23 03:46:39;;;;;;;28.33;19.92;;;2.60;93.70;;;;;;5067462;28;20044;-69
2021/01/23 03:49:05;;;;;;;25.48;18.75;;;2.70;93.40;;;;;;5067372;28;20045;-69
2021/01/23 03:51:30;;;;;;;30.85;20.05;;;2.70;93.40;;;;;;5068082;28;20090;-69
2021/01/23 03:53:56;;;;;;;31.50;18.02;;;2.70;93.30;;;;;;5067532;28;20045;-69
2021/01/23 03:56:22;;;;;;;29.98;18.90;;;2.70;93.20;;;;;;5067208;28;20494;-69
2021/01/23 03:58:48;;;;;;;26.08;19.40;;;2.70;93.40;;;;;;5063152;28;20047;-69
2021/01/23 04:01:14;;;;;;;24.27;16.95;;;2.70;93.30;;;;;;5065596;28;20081;-69
2021/01/23 04:03:40;;;;;;;23.98;18.38;;;2.60;93.40;;;;;;5067336;28;20048;-69
2021/01/23 04:06:06;;;;;;;28.35;18.33;;;2.60;93.20;;;;;;5067018;28;20041;-69
2021/01/23 04:08:32;;;;;;;25.38;18.90;;;2.60;93.60;;;;;;5066981;28;20095;-69
2021/01/23 04:10:59;;;;;;;26.13;18.08;;;2.60;93.50;;;;;;5066974;28;20109;-69
2021/01/23 04:13:25;;;;;;;29.95;18.27;;;2.50;93.70;;;;;;5067771;28;20053;-69
2021/01/23 04:15:52;;;;;;;25.23;18.40;;;2.60;93.50;;;;;;5077523;28;20051;-69
2021/01/23 04:18:18;;;;;;;30.15;17.92;;;2.70;93.10;;;;;;5080271;28;20071;-70
2021/01/23 04:20:44;;;;;;;27.27;17.10;;;2.60;93.20;;;;;;5066608;28;20127;-69
2021/01/23 04:23:10;;;;;;;23.45;17.55;;;2.60;93.10;;;;;;5066680;28;20140;-69
2021/01/23 04:25:36;;;;;;;26.45;17.90;;;2.60;93.20;;;;;;5067173;28;20470;-69
2021/01/23 04:28:02;;;;;;;29.00;19.00;;;2.60;93.00;;;;;;5067365;28;20045;-69
2021/01/23 04:30:27;;;;;;;22.45;15.65;;;2.60;93.00;;;;;;5066453;28;20120;-69
2021/01/23 04:32:53;;;;;;;22.10;17.35;;;2.70;92.80;;;;;;5066699;28;20056;-69
2021/01/23 04:35:19;;;;;;;21.88;16.98;;;2.80;92.40;;;;;;5053448;28;20048;-69
2021/01/23 04:37:45;;;;;;;22.42;16.30;;;2.80;92.40;;;;;;5066256;28;20499;-69
2021/01/23 04:40:12;;;;;;;22.30;15.05;;;2.80;92.50;;;;;;5066617;28;20048;-69
2021/01/23 04:42:42;;;;;;;26.75;17.50;;;2.90;92.50;;;;;;5066942;28;20052;-69
2021/01/23 04:45:13;;;;;;;23.95;17.88;;;2.90;92.90;;;;;;5053842;28;20045;-69
2021/01/23 04:47:39;;;;;;;;;;;2.70;92.90;;;;;;5066788;28;20049;-69
2021/01/23 04:50:08;;;;;;;23.65;16.77;;;2.90;92.60;;;;;;5066445;28;19921;-69
2021/01/23 04:52:38;;;;;;;25.00;16.88;;;2.70;92.80;;;;;;5064993;28;20072;-69
2021/01/23 04:55:05;;;;;;;;;;;2.60;93.00;;;;;;5066790;28;20091;-69
2021/01/23 04:57:31;;;;;;;24.23;17.05;;;2.70;93.20;;;;;;5066028;28;19921;-69
2021/01/23 04:59:57;;;;;;;27.17;18.10;;;2.50;93.00;;;;;;5061312;28;20053;-69
2021/01/23 05:02:24;;;;;;;26.40;17.95;;;2.50;93.50;;;;;;5066019;28;20049;-69
2021/01/23 05:05:02;;;;;;;23.65;17.58;;;2.50;93.20;;;;;;5081349;28;20049;-69
2021/01/23 05:07:30;;;;;;;22.60;18.02;;;2.40;93.50;;;;;;5064954;28;20041;-69
2021/01/23 05:10:14;;;;;;;23.30;16.80;;;2.30;93.70;;;;;;5066681;28;20053;-69
2021/01/23 05:12:41;;;;;;;24.15;18.15;;;2.50;93.20;;;;;;5065839;28;20047;-69
2021/01/23 05:15:13;;;;;;;25.73;19.20;;;2.50;93.10;;;;;;5075194;28;20072;-69
2021/01/23 05:17:55;;;;;;;28.90;18.17;;;2.50;92.90;;;;;;5074716;28;20112;-69
2021/01/23 05:20:34;;;;;;;26.55;17.20;;;2.60;93.20;;;;;;5068793;28;20127;-69
2021/01/23 05:23:28;;;;;;;23.42;17.88;;;2.60;93.10;;;;;;5065461;28;20072;-69
2021/01/23 05:25:59;;;;;;;23.38;17.10;;;2.60;92.90;;;;;;5063636;28;20501;-69
2021/01/23 05:28:35;;;;;;;26.90;17.25;;;2.60;93.20;;;;;;5065484;28;20045;-69
2021/01/23 05:31:03;;;;;;;28.08;17.05;;;2.70;93.20;;;;;;5066171;28;20052;-69
2021/01/23 05:33:34;;;;;;;30.77;17.02;;;2.90;92.90;;;;;;5066556;28;20497;-69
2021/01/23 05:36:03;;;;;;;22.85;16.83;;;3.20;92.30;;;;;;5065515;28;20045;-69
2021/01/23 05:38:35;;;;;;;22.92;15.15;;;3.30;92.10;;;;;;5065345;28;20087;-69
2021/01/23 05:41:04;;;;;;;23.73;16.10;;;3.30;92.30;;;;;;5065262;28;20053;-69
2021/01/23 05:43:40;;;;;;;21.10;15.73;;;3.30;92.20;;;;;;5065201;28;20045;-69
2021/01/23 05:46:09;;;;;;;23.48;16.33;;;3.30;92.10;;;;;;5065216;28;20091;-70
2021/01/23 05:48:39;;;;;;;25.35;17.20;;;3.20;92.40;;;;;;5065296;28;20386;-69
2021/01/23 05:51:05;;;;;;;21.75;15.65;;;3.30;92.10;;;;;;5065043;28;20047;-69
2021/01/23 05:53:31;;;;;;;23.25;14.13;;;3.40;92.10;;;;;;5065108;28;20068;-69
2021/01/23 05:55:59;;;;;;;21.15;13.80;;;3.30;92.40;;;;;;5064767;28;20075;-69
2021/01/23 05:58:27;;;;;;;19.85;14.07;;;3.50;92.00;;;;;;5063963;28;20044;-69
2021/01/23 06:00:54;;;;;;;27.40;17.30;;;3.60;91.80;;;;;;5061397;28;20091;-69
2021/01/23 06:03:20;;;;;;;24.85;15.77;;;3.40;92.20;;;;;;5064545;28;20131;-69
2021/01/23 06:05:47;;;;;;;19.92;16.75;;;3.30;92.70;;;;;;5064897;28;20048;-69
2021/01/23 06:08:12;;;;;;;23.88;14.27;;;3.50;92.30;;;;;;5064964;28;20044;-69
2021/01/23 06:10:39;;;;;;;26.00;15.73;;;3.40;92.60;;;;;;5064863;28;20045;-69
2021/01/23 06:13:26;;;;;;;27.08;17.92;;;3.60;92.10;;;;;;5064853;28;20055;-69
2021/01/23 06:15:52;;;;;;;24.58;18.75;;;3.40;92.60;;;;;;5073749;28;20044;-69
2021/01/23 06:18:24;;;;;;;25.63;18.73;;;3.40;92.70;;;;;;5078870;28;20050;-69
2021/01/23 06:20:51;;;;;;;26.80;17.08;;;3.30;93.10;;;;;;5052024;28;20501;-69
2021/01/23 06:23:20;;;;;;;21.30;15.27;;;3.30;93.40;;;;;;5064458;28;20044;-69
2021/01/23 06:25:49;;;;;;;22.80;15.10;;;3.40;93.20;;;;;;5065336;28;20048;-69
2021/01/23 06:28:40;;;;;;;22.55;17.30;;;3.40;93.20;;;;;;5064594;28;20135;-69
2021/01/23 06:31:26;;;;;;;24.25;17.80;;;3.40;93.30;;;;;;5064614;28;20049;-69
2021/01/23 06:33:52;;;;;;;21.98;17.85;;;3.30;93.50;;;;;;5051955;28;20064;-69
2021/01/23 06:36:19;;;;;;;24.20;18.25;;;3.40;93.30;;;;;;5064344;28;20049;-69
2021/01/23 06:39:05;;;;;;;23.58;18.50;;;3.40;93.30;;;;;;5064542;28;20079;-69
2021/01/23 06:41:35;;;;;;;22.88;18.83;;;3.40;93.50;;;;;;5064297;28;20041;-69
2021/01/23 06:44:07;;;;;;;27.42;16.00;;;3.20;93.60;;;;;;5064396;28;20128;-69
2021/01/23 06:46:33;;;;;;;25.08;17.80;;;3.50;93.30;;;;;;5064329;28;20041;-69
2021/01/23 06:49:07;;;;;;;27.13;17.92;;;3.50;93.20;;;;;;5064401;28;20057;-69
2021/01/23 06:51:32;;;;;;;24.23;17.38;;;3.40;93.50;;;;;;5064176;28;20072;-69
2021/01/23 06:54:21;;;;;;;26.33;18.92;;;3.40;93.70;;;;;;5065005;28;20076;-69
2021/01/23 06:56:52;;;;;;;23.50;17.15;;;3.40;93.70;;;;;;5056168;28;20053;-69
2021/01/23 06:59:36;;;;;;;26.55;17.60;;;3.30;94.10;;;;;;5058600;28;20037;-69
2021/01/23 07:02:10;;;;;;;25.15;17.48;;;3.40;93.90;;;;;;5064355;28;20112;-69
2021/01/23 07:04:47;;;;;;;22.88;16.75;;;3.40;94.00;;;;;;5064618;28;20045;-69
2021/01/23 07:07:14;;;;;;;22.58;16.10;;;3.40;94.10;;;;;;5064214;28;20060;-69
2021/01/23 07:09:54;;;;;;;26.65;18.17;;;3.40;94.40;;;;;;5064841;28;20588;-69
2021/01/23 07:12:41;;;;;;;22.05;16.60;;;3.50;93.90;;;;;;5063984;28;20048;-69
2021/01/23 07:15:12;;;;;;;22.42;15.93;;;3.60;93.60;;;;;;5074012;28;20508;-70
2021/01/23 07:17:43;;;;;;;20.58;16.48;;;3.40;94.30;;;;;;5064297;28;20474;-70
2021/01/23 07:20:11;;;;;;;25.10;18.02;;;3.60;93.70;;;;;;5072416;28;20139;-70
2021/01/23 07:22:41;;;;;;;24.42;17.95;;;3.70;93.40;;;;;;5067694;28;20049;-70
2021/01/23 07:25:10;;;;;;;27.05;16.02;;;3.60;93.70;;;;;;5068308;28;20150;-70
2021/01/23 07:27:37;;;;;;;24.60;17.85;;;3.70;93.60;;;;;;5067889;28;20100;-70
2021/01/23 07:30:13;;;;;;;21.17;15.13;;;3.80;93.50;;;;;;5067916;28;20056;-70
2021/01/23 07:32:40;;;;;;;23.58;16.98;;;3.90;93.20;;;;;;5067720;28;20052;-70
2021/01/23 07:35:07;;;;;;;27.48;18.88;;;3.90;93.30;;;;;;5067811;28;20485;-70
2021/01/23 07:37:53;;;;;;;17.15;10.02;;;3.70;93.80;;;;;;5067523;28;20092;-67
2021/01/23 07:40:24;;;;;;;24.27;17.42;;;3.70;94.00;;;;;;5055108;28;20041;-67
2021/01/23 07:42:51;;;;;;;24.92;15.23;;;3.70;94.00;;;;;;5067167;28;20088;-67
2021/01/23 07:45:18;;;;;;;26.38;19.70;;;3.70;94.10;;;;;;5067659;28;20131;-68
2021/01/23 07:47:58;;;;;;;25.40;17.88;;;3.60;94.20;;;;;;5067555;28;20056;-67
2021/01/23 07:50:24;;;;;;;25.60;20.23;;;3.70;94.20;;;;;;5067748;28;20048;-68
2021/01/23 07:52:50;;;;;;;26.48;20.63;;;3.50;94.40;;;;;;5067282;28;20053;-68
2021/01/23 07:55:16;;;;;;;24.95;18.75;;;3.50;94.70;;;;;;5067438;28;20923;-67
2021/01/23 07:57:42;;;;;;;23.35;18.30;;;3.70;94.20;;;;;;5067710;28;20049;-67
2021/01/23 08:00:19;;;;;;;20.20;14.27;;;3.80;93.80;;;;;;5061301;28;20057;-68
2021/01/23 08:02:53;;;;;;;24.92;16.95;;;3.80;94.30;;;;;;5067304;28;20127;-68
2021/01/23 08:05:19;;;;;;;26.85;18.30;;;3.80;94.10;;;;;;5067568;28;20048;-68
2021/01/23 08:07:46;;;;;;;25.67;18.52;;;3.60;94.60;;;;;;5067091;28;20063;-67
2021/01/23 08:10:19;;;;;;;24.75;14.70;;;3.60;94.50;;;;;;5066984;28;20063;-67
2021/01/23 08:12:51;;;;;;;24.85;17.30;;;3.80;94.20;;;;;;5066792;28;20124;-67
2021/01/23 08:15:37;;;;;;;21.45;15.80;;;4.00;93.80;;;;;;5077013;28;20116;-68
2021/01/23 08:18:17;;;;;;;25.70;16.92;;;4.00;93.50;;;;;;5078286;28;20094;-67
2021/01/23 08:20:43;;;;;;;24.38;17.50;;;3.90;93.80;;;;;;5054126;28;20049;-67
2021/01/23 08:23:15;;;;;;;23.83;15.57;;;3.80;94.10;;;;;;5067978;28;20045;-67
2021/01/23 08:25:55;;;;;;;23.05;17.52;;;4.00;93.90;;;;;;5053800;28;20516;-67
2021/01/23 08:28:35;;;;;;;22.73;16.92;;;4.00;93.90;;;;;;5062515;28;20063;-67
2021/01/23 08:31:11;;;;;;;20.90;14.87;;;3.80;94.40;;;;;;5066572;28;20056;-67
2021/01/23 08:33:37;;;;;;;20.50;11.55;;;4.20;93.30;;;;;;5066438;28;20053;-68
2021/01/23 08:36:03;;;;;;;25.02;16.77;;;4.20;93.60;;;;;;5074013;28;20063;-68
2021/01/23 08:38:29;;;;;;;15.80;11.75;;;4.00;93.80;;;;;;5066503;28;20053;-67
2021/01/23 08:40:55;;;;;;;22.17;13.95;;;4.30;93.30;;;;;;5066507;28;20053;-67
2021/01/23 08:43:20;;;;;;;22.58;15.63;;;4.20;93.30;;;;;;5066363;28;20456;-67
2021/01/23 08:45:46;;;;;;;21.05;16.65;;;4.10;93.60;;;;;;5066333;28;20056;-67
2021/01/23 08:48:12;;;;;;;20.70;15.00;;;4.10;93.60;;;;;;5067144;28;20124;-67
2021/01/23 08:50:38;;;;;;;24.20;16.10;;;4.00;93.80;;;;;;5066255;28;20049;-67
2021/01/23 08:53:03;;;;;;;21.55;17.13;;;3.90;94.00;;;;;;5066334;28;20048;-68
2021/01/23 08:55:29;;;;;;;22.13;15.18;;;3.80;94.20;;;;;;5066405;28;20478;-67
2021/01/23 08:57:55;;;;;;;21.83;17.00;;;3.90;94.40;;;;;;5067112;28;20072;-67
2021/01/23 09:00:21;;;;;;;21.02;15.85;;;3.90;94.30;;;;;;5045656;28;20049;-67
2021/01/23 09:02:48;;;;;;;22.30;15.38;;;3.80;94.60;;;;;;5046067;28;20049;-67
2021/01/23 09:05:14;;;;;;;21.88;14.57;;;3.90;94.50;;;;;;5045850;28;20052;-67
2021/01/23 09:07:39;;;;;;;19.40;15.38;;;4.00;94.00;;;;;;5045991;28;20076;-67
2021/01/23 09:10:09;;;;;;;20.23;14.07;;;4.30;93.50;;;;;;5051406;28;20045;-70
2021/01/23 09:12:35;;;;;;;20.07;15.67;;;4.20;93.70;;;;;;5055510;28;20072;-71
2021/01/23 09:15:01;;;;;;;22.63;15.93;;;4.20;93.90;;;;;;5062628;28;20067;-70
2021/01/23 09:17:27;;;;;;;16.02;12.48;;;4.30;93.70;;;;;;5062881;28;20040;-69
2021/01/23 09:19:53;;;;;;;21.00;15.70;;;4.30;93.80;;;;;;5062051;28;20048;-72
2021/01/23 09:22:19;;;;;;;24.08;15.93;;;4.30;93.70;;;;;;5061625;28;20226;-69
2021/01/23 09:24:44;;;;;;;22.63;16.50;;;4.20;94.00;;;;;;5059009;28;20041;-69
2021/01/23 09:27:10;;;;;;;22.83;16.15;;;4.30;93.70;;;;;;5055894;28;20068;-67
2021/01/23 09:29:39;;;;;;;23.33;17.08;;;4.30;93.70;;;;;;5058620;28;20072;-67
2021/01/23 09:32:06;;;;;;;20.85;15.05;;;4.30;94.00;;;;;;5060460;28;20108;-71
2021/01/23 09:34:35;;;;;;;19.33;14.27;;;4.60;93.20;;;;;;5056210;28;20040;-70
2021/01/23 09:37:04;;;;;;;22.65;15.65;;;4.50;93.70;;;;;;5045606;28;20041;-70
2021/01/23 09:39:31;;;;;;;20.73;14.10;;;4.70;92.90;;;;;;5059322;28;20052;-70
2021/01/23 09:42:00;;;;;;;19.35;12.40;;;4.70;92.90;;;;;;5063578;28;20052;-69
2021/01/23 09:44:27;;;;;;;19.40;13.70;;;4.90;92.40;;;;;;5053683;28;20059;-70
2021/01/23 09:46:53;;;;;;;21.63;15.48;;;4.80;92.50;;;;;;5048608;28;20068;-69
2021/01/23 09:49:19;;;;;;;17.90;13.45;;;4.70;92.50;;;;;;5052783;28;20045;-70
2021/01/23 09:51:45;;;;;;;19.88;14.52;;;4.50;93.30;;;;;;5049595;28;20635;-70
2021/01/23 09:54:11;;;;;;;20.92;13.93;;;4.40;93.50;;;;;;5052316;28;20444;-70
2021/01/23 09:56:37;;;;;;;19.83;14.35;;;4.60;92.80;;;;;;5046465;28;20045;-71
2021/01/23 09:59:03;;;;;;;17.73;14.60;;;4.70;92.90;;;;;;5051153;28;20049;-70
2021/01/23 10:01:29;;;;;;;20.55;15.48;;;4.50;93.10;;;;;;5063501;28;20103;-70
2021/01/23 10:03:56;;;;;;;21.98;14.82;;;4.50;93.30;;;;;;5072616;28;20064;-68
2021/01/23 10:06:23;;;;;;;18.40;14.23;;;4.50;93.50;;;;;;5065841;28;20051;-69
2021/01/23 10:08:49;;;;;;;20.08;13.77;;;4.60;93.20;;;;;;5078564;28;20076;-70
2021/01/23 10:11:15;;;;;;;19.58;13.80;;;4.60;93.10;;;;;;5080835;28;20079;-69
2021/01/23 10:13:41;;;;;;;21.17;14.43;;;4.50;93.30;;;;;;5078874;28;20485;-70
2021/01/23 10:16:06;;;;;;;16.80;11.95;;;4.60;93.20;;;;;;5081945;28;20068;-69
2021/01/23 10:18:35;;;;;;;18.20;13.27;;;4.80;92.60;;;;;;5081976;28;20051;-70
2021/01/23 10:21:08;;;;;;;16.30;11.60;;;5.00;91.70;;;;;;5064801;28;20436;-66
2021/01/23 10:23:34;;;;;;;19.63;13.95;;;4.80;92.60;;;;;;5065792;28;20044;-70
2021/01/23 10:26:00;;;;;;;17.05;13.05;;;5.10;91.70;;;;;;5065564;28;20120;-70
2021/01/23 10:28:29;;;;;;;19.13;14.55;;;4.80;92.60;;;;;;5065038;28;20056;-70
2021/01/23 10:30:55;;;;;;;16.75;12.52;;;4.60;92.90;;;;;;5064512;28;20100;-70
2021/01/23 10:33:21;;;;;;;19.75;13.82;;;4.70;92.80;;;;;;5065150;28;20059;-70
2021/01/23 10:35:47;;;;;;;18.02;12.50;;;4.70;92.80;;;;;;5064307;28;20040;-70
2021/01/23 10:38:13;;;;;;;19.02;14.75;;;4.80;92.50;;;;;;5064436;28;20041;-70
2021/01/23 10:40:39;;;;;;;36.45;19.30;;;4.70;93.30;;;;;;5064975;28;20041;-70
2021/01/23 10:43:04;;;;;;;32.60;18.55;;;4.90;92.40;;;;;;5047661;28;20045;-68
2021/01/23 10:45:30;;;;;;;20.92;14.15;;;5.00;91.70;;;;;;5074319;28;20045;-66
2021/01/23 10:47:56;;;;;;;19.55;12.98;;;4.90;92.20;;;;;;5080347;28;20053;-74
2021/01/23 10:50:22;;;;;;;18.80;13.23;;;4.90;92.10;;;;;;5078050;28;20044;-80
2021/01/23 10:52:48;;;;;;;18.08;13.50;;;4.80;92.30;;;;;;5063234;28;20386;-74
2021/01/23 10:55:14;;;;;;;16.02;12.20;;;4.70;92.80;;;;;;5086881;28;20053;-76
2021/01/23 10:57:40;;;;;;;17.65;13.02;;;4.90;92.20;;;;;;5080529;28;20041;-68
2021/01/23 11:00:08;;;;;;;17.38;12.52;;;4.90;92.10;;;;;;5054933;28;20049;-70
2021/01/23 11:02:38;;;;;;;17.27;11.30;;;4.90;92.20;;;;;;5071823;28;20067;-72
2021/01/23 11:05:07;;;;;;;17.88;12.60;;;5.00;92.10;;;;;;5069503;28;20116;-73
2021/01/23 11:07:33;;;;;;;16.10;12.63;;;4.90;92.10;;;;;;5070222;28;20040;-70
2021/01/23 11:09:58;;;;;;;20.38;12.75;;;4.90;92.10;;;;;;5075145;28;20071;-72
2021/01/23 11:12:24;;;;;;;16.70;12.63;;;4.80;92.40;;;;;;5080479;28;20056;-73
2021/01/23 11:14:50;;;;;;;15.10;10.35;;;5.10;91.80;;;;;;5074895;28;20072;-73
2021/01/23 11:17:16;;;;;;;14.02;12.30;;;5.20;91.70;;;;;;5062714;28;20049;-72
2021/01/23 11:19:41;;;;;;;17.23;12.63;;;5.10;91.90;;;;;;5069206;28;20076;-73
2021/01/23 11:22:07;;;;;;;19.90;12.57;;;4.90;92.10;;;;;;5068835;28;20051;-73
2021/01/23 11:24:33;;;;;;;15.13;12.30;;;4.90;92.40;;;;;;5068993;28;20468;-72
2021/01/23 11:26:59;;;;;;;17.45;13.00;;;4.90;92.30;;;;;;5067819;28;20041;-73
2021/01/23 11:29:25;;;;;;;15.95;12.23;;;5.00;92.00;;;;;;5067839;28;20071;-73
2021/01/23 11:31:51;;;;;;;15.00;12.00;;;5.00;92.20;;;;;;5067757;28;20096;-73
2021/01/23 11:34:17;;;;;;;15.32;12.02;;;5.00;92.40;;;;;;5067973;28;20048;-73
2021/01/23 11:36:43;;;;;;;22.27;12.98;;;5.20;91.80;;;;;;5067502;28;20044;-73
2021/01/23 11:39:08;;;;;;;18.10;12.70;;;5.10;91.80;;;;;;5067624;28;20130;-73
2021/01/23 11:41:34;;;;;;;14.68;11.85;;;5.20;91.90;;;;;;5067627;28;20409;-73
2021/01/23 11:44:00;;;;;;;15.73;11.02;;;5.20;91.60;;;;;;5068566;28;20116;-73
2021/01/23 11:46:27;;;;;;;13.98;11.30;;;5.20;91.40;;;;;;5068202;28;20500;-73
2021/01/23 11:48:53;;;;;;;12.68;10.85;;;5.40;91.20;;;;;;5067830;28;20079;-73
2021/01/23 11:51:18;;;;;;;14.25;10.35;;;5.30;91.30;;;;;;5080876;28;20412;-73
2021/01/23 11:53:44;;;;;;;12.35;10.52;;;5.50;91.00;;;;;;5067922;28;20059;-73
2021/01/23 11:56:10;;;;;;;13.10;10.20;;;5.50;90.80;;;;;;5067134;28;20048;-73
2021/01/23 11:58:36;;;;;;;13.65;11.88;;;5.30;91.20;;;;;;5064431;28;20053;-73
2021/01/23 12:01:02;;;;;;;14.57;11.52;;;5.20;91.30;;;;;;5064320;28;20060;-73
2021/01/23 12:03:28;;;;;;;15.05;11.55;;;5.10;91.60;;;;;;5067354;28;20045;-73
2021/01/23 12:05:54;;;;;;;18.40;12.73;;;5.20;91.40;;;;;;5067106;28;20044;-73
2021/01/23 12:08:20;;;;;;;15.52;11.88;;;5.20;91.50;;;;;;5067038;28;20083;-73
2021/01/23 12:10:46;;;;;;;13.98;11.90;;;5.30;91.50;;;;;;5066957;28;20068;-73
2021/01/23 12:13:12;;;;;;;14.38;12.05;;;5.40;91.10;;;;;;5067161;28;20136;-73
2021/01/23 12:15:38;;;;;;;16.83;11.65;;;5.50;91.10;;;;;;5076332;28;20102;-73
2021/01/23 12:18:03;;;;;;;15.35;10.52;;;5.40;91.30;;;;;;5078158;28;20048;-73
2021/01/23 12:20:30;;;;;;;13.55;12.15;;;5.40;90.90;;;;;;5081869;28;20052;-73
2021/01/23 12:22:56;;;;;;;13.23;10.20;;;5.40;91.30;;;;;;5066938;28;20055;-73
2021/01/23 12:25:22;;;;;;;15.13;11.23;;;5.40;91.50;;;;;;5067116;28;20041;-73
2021/01/23 12:27:48;;;;;;;14.23;11.10;;;5.40;91.30;;;;;;5066339;28;20397;-73
2021/01/23 12:30:15;;;;;;;16.45;12.18;;;5.40;91.40;;;;;;5066566;28;20047;-73
2021/01/23 12:32:45;;;;;;;12.73;11.43;;;5.30;91.70;;;;;;5066975;28;20117;-77
2021/01/23 12:35:14;;;;;;;16.02;11.85;;;5.30;91.70;;;;;;5066805;28;20048;-76
2021/01/23 12:37:41;;;;;;;13.85;10.48;;;5.40;91.50;;;;;;5067136;28;20052;-75
2021/01/23 12:40:08;;;;;;;12.80;11.00;;;5.30;91.10;;;;;;5066866;28;20299;-75
2021/01/23 12:42:35;;;;;;;11.80;9.73;;;5.40;91.00;;;;;;5066413;28;20041;-75
2021/01/23 12:45:00;;;;;;;11.05;8.50;;;5.40;90.50;;;;;;5066767;28;20056;-75